M I D A S
Marine Information and Data Acquisition System
Tripno 810 of the Zeeleeuw from 2004-11-22 08:19:51 to 2004-11-22 14:09:12
Back to CruiseResearch ActivitiesStationsMapUnderway DataData graphs

EquipmentUnitsComments
TimeDGPSUTC
LatitudeDGPSDM.mWGS84
LongitudeDGPSDM.mWGS84
SpeedMeteo Stationm/sRelative wind speed
DirectionMeteo StationdegRelative wind direction
TemperatureMeteo Stationdeg CelciusAir temperature
PressureMeteo StationPaAtmospheric pressure
HumidityMeteo Station%Relative humidity
Missing or incorrect values are displayed as -999
Metereological data collected by the RV Zeeleeuw from 2004-11-22 08:21:17 to 2004-11-22 14:15:54
Time Latitude Longitude Speed Direction Temperature Pressure Humidity
2004-11-22 08:22 51°13.614 2°56.049 6.2 169 12.1 101540 87
2004-11-22 08:23 51°13.624 2°56.014 13.1 152 12.1 101540 86
2004-11-22 08:24 51°13.653 2°55.927 12.3 153 12.1 101530 86
2004-11-22 08:25 51°13.675 2°55.776 4.4 159 12.1 101540 86
2004-11-22 08:26 51°13.679 2°55.764 6.6 223 12.1 101530 86
2004-11-22 08:28 51°13.722 2°55.727 6.6 314 12.3 101530 86
2004-11-22 08:29 51°13.83 2°55.635 4.7 332 12.2 101560 86
2004-11-22 08:30 51°13.956 2°55.542 10.1 293 12.2 101520 86
2004-11-22 08:31 51°14.164 2°55.38 13.3 240 12 101540 86
2004-11-22 08:32 51°14.312 2°55.179 16.8 317 11.8 101500 86
2004-11-22 08:33 51°14.43 2°54.975 17.8 326 11.5 101480 86
2004-11-22 08:34 51°14.468 2°54.717 20.7 356 11.3 101490 88
2004-11-22 08:35 51°14.432 2°54.469 18.8 8 11.3 101500 89
2004-11-22 08:36 51°14.345 2°54.217 18.8 8 11.2 101520 90
2004-11-22 08:38 51°14.223 2°53.859 20.2 6 11.2 101510 91
2004-11-22 08:39 51°14.106 2°53.51 20.6 5 11.1 101520 91
2004-11-22 08:40 51°13.984 2°53.136 19.9 8 11.1 101520 91
2004-11-22 08:42 51°13.871 2°52.78 20.3 10 11.1 101510 91
2004-11-22 08:43 51°13.779 2°52.493 21.4 8 11.2 101530 91
2004-11-22 08:44 51°13.686 2°52.204 19.3 10 11.2 101530 91
2004-11-22 08:45 51°13.57 2°51.837 18 9 11.2 101520 90
2004-11-22 08:46 51°13.454 2°51.482 18.8 11 11.2 101540 91
2004-11-22 08:48 51°13.353 2°51.168 20.2 3 11.2 101540 91
2004-11-22 08:49 51°13.241 2°50.83 19.2 14 11.2 101540 90
2004-11-22 08:50 51°13.134 2°50.549 19.7 13 11.2 101540 90
2004-11-22 08:51 51°13.001 2°50.197 18.8 14 11.3 101530 89
2004-11-22 08:53 51°12.879 2°49.869 19.2 6 11.3 101550 89
2004-11-22 08:54 51°12.769 2°49.576 20.2 13 11.3 101550 89
2004-11-22 08:55 51°12.672 2°49.316 19.9 10 11.3 101560 89
2004-11-22 08:56 51°12.531 2°48.936 20.5 10 11.3 101550 89
2004-11-22 08:58 51°12.381 2°48.536 17.8 7 11.4 101560 89
2004-11-22 08:59 51°12.27 2°48.236 18.1 15 11.4 101560 89
2004-11-22 09:00 51°12.146 2°47.902 18 13 11.4 101550 90
2004-11-22 09:01 51°12.045 2°47.629 18.5 14 11.4 101550 90
2004-11-22 09:02 51°11.912 2°47.264 18.4 17 11.4 101560 90
2004-11-22 09:04 51°11.755 2°46.84 18.1 10 11.4 101560 90
2004-11-22 09:05 51°11.659 2°46.576 19.5 13 11.4 101550 90
2004-11-22 09:06 51°11.541 2°46.262 19.8 10 11.4 101560 90
2004-11-22 09:07 51°11.432 2°45.961 21.2 16 11.5 101560 90
2004-11-22 09:09 51°11.295 2°45.564 19.6 355 11.5 101560 90
2004-11-22 09:10 51°11.229 2°45.242 19.3 3 11.5 101570 90
2004-11-22 09:11 51°11.138 2°44.811 22.1 6 11.5 101580 90
2004-11-22 09:12 51°11.051 2°44.403 20 5 11.6 101570 90
2004-11-22 09:14 51°10.964 2°44.002 19.2   11.6 101580 90
2004-11-22 09:15 51°10.899 2°43.701 18.7 5 11.6 101580 91
2004-11-22 09:16 51°10.836 2°43.4 18.6 3 11.6 101590 91
2004-11-22 09:17 51°10.758 2°43.04 21.5 7 11.6 101590 91
2004-11-22 09:19 51°10.652 2°42.501 19.9 356 11.6 101580 91
2004-11-22 09:20 51°10.625 2°42.183 20 353 11.5 101570 91
2004-11-22 09:21 51°10.572 2°41.833 22.1 5 11.6 101560 91
2004-11-22 09:22 51°10.527 2°41.523 19.7 359 11.6 101550 91
2004-11-22 09:23 51°10.483 2°41.22 18.9 359 11.6 101560 92
2004-11-22 09:24 51°10.418 2°40.771 20.8 358 -999 -999 -999
2004-11-22 09:25 51°10.368 2°40.431 20.6 4 11.6 101570 92
2004-11-22 09:27 51°10.31 2°40.021 20.4 6 11.6 101550 92
2004-11-22 09:28 51°10.256 2°39.648 20.3 3 11.6 101570 93
2004-11-22 09:29 51°10.22 2°39.336 18.8 2 11.6 101570 93
2004-11-22 09:30 51°10.184 2°39.04 21.4 2 11.6 101550 93
2004-11-22 09:31 51°10.142 2°38.694 21.9 2 11.6 101580 93
2004-11-22 09:33 51°10.098 2°38.298 22.3 359 11.7 101540 94
2004-11-22 09:34 51°10.047 2°37.869 19.5 2 11.7 101560 93
2004-11-22 09:35 51°10.001 2°37.485 21.9 3 11.7 101550 93
2004-11-22 09:37 51°9.931 2°36.897 20.1 357 11.7 101560 94
2004-11-22 09:38 51°9.921 2°36.557 21.8 357 11.7 101550 94
2004-11-22 09:39 51°9.915 2°36.218 18.5 352 11.8 101550 94
2004-11-22 09:40 51°10.004 2°35.912 17.4 319 11.7 101540 94
2004-11-22 09:41 51°10.213 2°35.809 13.1 282 11.7 101550 94
2004-11-22 09:42 51°10.436 2°35.963 9.1 260 11.7 101580 94
2004-11-22 09:43 51°10.657 2°36.156 11.6 262 11.7 101600 94
2004-11-22 09:44 51°10.873 2°36.362 9.2 267 11.7 101600 94
2004-11-22 09:45 51°11.074 2°36.564 8 254 11.6 101610 94
2004-11-22 09:47 51°11.329 2°36.822 8.6 253 11.6 101610 94
2004-11-22 09:48 51°11.569 2°37.056 8.2 259 11.6 101600 94
2004-11-22 09:49 51°11.777 2°37.255 5.3 258 11.7 101600 94
2004-11-22 09:50 51°12.003 2°37.48 7.1 260 11.6 101610 94
2004-11-22 09:51 51°12.213 2°37.687 7.3 249 11.7 101590 94
2004-11-22 09:52 51°12.412 2°37.894 6 256 11.7 101590 94
2004-11-22 09:53 51°12.683 2°38.154 7.4 258 11.7 101600 94
2004-11-22 09:54 51°12.883 2°38.35 9.5 273 11.6 101590 94
2004-11-22 09:55 51°13.099 2°38.565 10.5 266 11.6 101600 94
2004-11-22 09:56 51°13.318 2°38.729 11.9 273 11.6 101570 94
2004-11-22 09:57 51°13.546 2°38.877 12.3 277 11.7 101590 94
2004-11-22 09:58 51°13.838 2°38.906 15.5 298 11.7 101570 93
2004-11-22 10:00 51°14.152 2°38.769 17.6 321 11.6 101550 93
2004-11-22 10:01 51°14.229 2°38.501 19.5 354 11.7 101530 93
2004-11-22 10:02 51°14.139 2°38.088 19.5 9 11.8 101580 92
2004-11-22 10:03 51°14.063 2°37.794 19.1 20 11.8 101590 92
2004-11-22 10:05 51°13.957 2°37.382 19.5 3 11.8 101580 91
2004-11-22 10:07 51°13.828 2°36.889 22.1 9 11.9 101560 91
2004-11-22 10:08 51°13.714 2°36.426 19.5 9 11.8 101590 91
2004-11-22 10:09 51°13.617 2°36.038 20.1 13 11.8 101600 91
2004-11-22 10:11 51°13.491 2°35.563 22.7 7 11.8 101610 91
2004-11-22 10:12 51°13.418 2°35.286 20.1 9 11.9 101610 91
2004-11-22 10:13 51°13.317 2°34.9 19.5 9 11.9 101610 91
2004-11-22 10:15 51°13.218 2°34.522 18.9 14 12 101600 90
2004-11-22 10:16 51°13.093 2°34.064 18.4 12 12 101590 90
2004-11-22 10:18 51°12.972 2°33.657 20.8 15 12 101600 90
2004-11-22 10:19 51°12.876 2°33.334 20 13 12 101580 89
2004-11-22 10:20 51°12.781 2°33.016 23 14 11.8 101590 91
2004-11-22 10:21 51°12.678 2°32.664 22.2 12 11.7 101580 92
2004-11-22 10:23 51°12.547 2°32.225 21.1 11 11.7 101560 93
2004-11-22 10:25 51°12.41 2°31.767 20.3 11 11.7 101580 93
2004-11-22 10:26 51°12.301 2°31.404 20.8 13 11.8 101590 92
2004-11-22 10:28 51°12.114 2°30.789 21.5 17 11.9 101560 92
2004-11-22 10:29 51°12.023 2°30.48 18.2 15 11.9 101590 92
2004-11-22 10:31 51°11.907 2°30.079 20 15 11.9 101580 91
2004-11-22 10:32 51°11.823 2°29.798 21.7 14 12 101570 91
2004-11-22 10:33 51°11.741 2°29.52 20.2 14 12 101570 91
2004-11-22 10:34 51°11.625 2°29.128 18.5 11 11.9 101580 92
2004-11-22 10:36 51°11.487 2°28.668 21.7 14 11.9 101580 92
2004-11-22 10:37 51°11.403 2°28.353 18.1 7 11.9 101580 92
2004-11-22 10:38 51°11.324 2°27.977 19.6 7 12 101590 91
2004-11-22 10:39 51°11.232 2°27.538 20.3 8 12 101580 90
2004-11-22 10:40 51°11.173 2°27.247 20.6 8 12.1 101600 90
2004-11-22 10:41 51°11.102 2°26.909 19.5 1 12.1 101600 89
2004-11-22 10:42 51°11.041 2°26.613 20.3 7 12.2 101590 88
2004-11-22 10:43 51°10.981 2°26.296 20 6 12.2 101600 88
2004-11-22 10:45 51°10.934 2°25.88 20.6 3 12.2 101570 87
2004-11-22 10:46 51°10.892 2°25.526 18.9 354 12.2 101600 87
2004-11-22 10:47 51°10.923 2°25.127 21 336 12.3 101580 87
2004-11-22 10:48 51°11.139 2°24.958 17.5 299 12.3 101560 87
2004-11-22 10:49 51°11.378 2°25.001 11.7 283 12.3 101610 87
2004-11-22 10:51 51°11.676 2°25.171 10.2 259 12.3 101620 86
2004-11-22 10:52 51°11.886 2°25.388 6.6 238 12.4 101630 86
2004-11-22 10:53 51°12.079 2°25.649 7 259 12.4 101640 85
2004-11-22 10:54 51°12.32 2°25.992 7.7 242 12.4 101640 85
2004-11-22 10:56 51°12.659 2°26.478 5.8 256 12.5 101630 84
2004-11-22 10:57 51°12.903 2°26.835 7.5 254 12.5 101630 83
2004-11-22 10:58 51°13.112 2°27.117 4.7 251 12.6 101620 83
2004-11-22 10:59 51°13.298 2°27.392 5.7 256 12.6 101630 82
2004-11-22 11:00 51°13.478 2°27.659 6.4 249 12.6 101620 82
2004-11-22 11:01 51°13.69 2°27.955 7 235 12.6 101620 82
2004-11-22 11:02 51°13.904 2°28.266 10.3 232 12.6 101630 82
2004-11-22 11:04 51°14.107 2°28.565 4.9 250 12.7 101620 81
2004-11-22 11:05 51°14.289 2°28.837 5.6 255 12.7 101630 81
2004-11-22 11:06 51°14.517 2°29.165 6.9 240 12.7 101630 81
2004-11-22 11:07 51°14.741 2°29.505 4.1 256 12.7 101620 81
2004-11-22 11:08 51°14.93 2°29.781 5.8 255 12.7 101630 81
2004-11-22 11:09 51°15.121 2°30.071 8.2 248 12.7 101620 81
2004-11-22 11:10 51°15.308 2°30.344 5.9 250 12.6 101610 80
2004-11-22 11:11 51°15.543 2°30.689 8.6 242 12.6 101610 80
2004-11-22 11:12 51°15.729 2°30.958 6.1 242 12.6 101600 80
2004-11-22 11:14 51°15.95 2°31.281 6.7 243 12.6 101600 81
2004-11-22 11:15 51°16.137 2°31.559 6.6 251 12.6 101600 81
2004-11-22 11:16 51°16.321 2°31.83 5.5 249 12.6 101610 81
2004-11-22 11:17 51°16.547 2°32.157 7 251 12.6 101610 81
2004-11-22 11:18 51°16.759 2°32.473 6.1 258 12.6 101610 80
2004-11-22 11:19 51°16.95 2°32.756 6.2 248 12.6 101610 80
2004-11-22 11:20 51°17.132 2°33.017 6.3 246 12.6 101610 80
2004-11-22 11:21 51°17.314 2°33.304 8.1 264 12.6 101600 80
2004-11-22 11:22 51°17.535 2°33.622 5.2 253 12.6 101600 80
2004-11-22 11:23 51°17.74 2°33.921 6.5 254 12.6 101590 80
2004-11-22 11:24 51°17.942 2°34.219 6.1 237 12.5 101590 80
2004-11-22 11:25 51°18.118 2°34.477 6.9 242 12.5 101590 81
2004-11-22 11:26 51°18.317 2°34.773 7.6 227 12.4 101580 81
2004-11-22 11:28 51°18.542 2°35.135 6.8 227 12.4 101580 81
2004-11-22 11:29 51°18.711 2°35.458 6.6 236 12.4 101580 81
2004-11-22 11:30 51°18.913 2°35.855 6.9 215 12.4 101570 81
2004-11-22 11:31 51°19.155 2°36.308 9 230 12.3 101560 82
2004-11-22 11:33 51°19.369 2°36.722 6.6 233 12.3 101560 82
2004-11-22 11:34 51°19.575 2°37.098 5.7 246 12.3 101550 82
2004-11-22 11:36 51°19.798 2°37.53 4.8 226 12.2 101550 82
2004-11-22 11:37 51°19.974 2°37.876 5.8 217 12.2 101560 82
2004-11-22 11:38 51°20.124 2°38.182 9 231 12.2 101550 82
2004-11-22 11:39 51°20.288 2°38.466 7.6 215 12.2 101560 82
2004-11-22 11:40 51°20.493 2°38.828 6.9 248 12.1 101560 83
2004-11-22 11:41 51°20.691 2°39.15 7.2 232 12.1 101560 83
2004-11-22 11:42 51°20.867 2°39.462 6.3 247 12.1 101560 83
2004-11-22 11:43 51°21.05 2°39.751 7.8 244 12.1 101560 83
2004-11-22 11:44 51°21.263 2°39.939 16.5 289 12.1 101530 83
2004-11-22 11:45 51°21.521 2°39.945 15.3 285 12.1 101520 83
2004-11-22 11:47 51°21.795 2°39.958 17.1 288 12.1 101510 83
2004-11-22 11:48 51°22.03 2°39.981 16.2 280 12.1 101520 83
2004-11-22 11:49 51°22.268 2°40.011 14.2 275 12.1 101510 84
2004-11-22 11:49 51°22.5 2°40.025 14.7 286 12.1 101510 84
2004-11-22 11:51 51°22.764 2°40.045 16.5 286 12.1 101500 84
2004-11-22 11:52 51°23.003 2°40.057 16.6 286 12.1 101490 84
2004-11-22 11:53 51°23.335 2°40.077 14.4 290 12.1 101510 84
2004-11-22 11:54 51°23.66 2°40.14 13.1 280 12.1 101510 84
2004-11-22 11:55 51°23.925 2°40.196 11 282 12.1 101520 85
2004-11-22 11:56 51°24.158 2°40.256 15.1 287 12.1 101500 85
2004-11-22 11:58 51°24.449 2°40.319 13.3 292 12.1 101510 85
2004-11-22 11:59 51°24.696 2°40.372 12 276 12.1 101500 85
2004-11-22 12:00 51°24.96 2°40.44 11.7 281 12.1 101510 85
2004-11-22 12:01 51°25.233 2°40.523 15.3 273 12.1 101500 85
2004-11-22 12:02 51°25.497 2°40.598 12.2 277 12.1 101510 85
2004-11-22 12:03 51°25.736 2°40.656 8.8 290 12.1 101480 85
2004-11-22 12:04 51°25.948 2°40.826 9 261 12.1 101530 85
2004-11-22 12:05 51°26.173 2°41.048 7.6 247 12.2 101520 84
2004-11-22 12:06 51°26.386 2°41.296 9.9 241 12.2 101520 84
2004-11-22 12:07 51°26.567 2°41.613 6.6 220 12.2 101530 84
2004-11-22 12:08 51°26.692 2°41.991 9.1 212 12.2 101540 84
2004-11-22 12:09 51°26.787 2°42.371 4 201 12.4 101540 84
2004-11-22 12:10 51°26.857 2°42.762 4.1 195 12.7 101540 83
2004-11-22 12:11 51°26.931 2°43.131 4.9 175 12.7 101550 83
2004-11-22 12:13 51°27.022 2°43.575 3.4 190 13.1 101550 82
2004-11-22 12:14 51°27.071 2°43.934 8 126 13.2 101550 80
2004-11-22 12:15 51°26.994 2°44.264 9.7 107 12.9 101530 79
2004-11-22 12:16 51°26.849 2°44.565 10.5 109 12.6 101550 80
2004-11-22 12:17 51°26.699 2°44.883 14.3 102 12.4 101530 82
2004-11-22 12:18 51°26.529 2°45.118 14 86 12.3 101500 83
2004-11-22 12:19 51°26.315 2°45.378 14.7 84 12.1 101490 84
2004-11-22 12:20 51°26.105 2°45.636 14 93 12 101510 85
2004-11-22 12:21 51°25.952 2°45.897 8.9 110 12 101530 86
2004-11-22 12:22 51°25.925 2°46.27 4.1 195 11.9 101540 86
2004-11-22 12:23 51°25.989 2°46.652 5 155 11.9 101550 87
2004-11-22 12:25 51°26.082 2°47.192 6.6 184 12.3 101550 88
2004-11-22 12:26 51°26.157 2°47.593 3.8 207 12.4 101550 85
2004-11-22 12:27 51°26.24 2°47.95 5.8 203 12.6 101560 86
2004-11-22 12:28 51°26.392 2°48.343 6.4 203 12.4 101550 83
2004-11-22 12:29 51°26.526 2°48.701 5.7 209 12.3 101560 83
2004-11-22 12:30 51°26.736 2°49.043 12.7 266 12.1 101550 84
2004-11-22 12:32 51°26.991 2°49.103 13.7 294 12 101540 84
2004-11-22 12:33 51°27.241 2°49.116 14.1 291 12 101530 85
2004-11-22 12:34 51°27.48 2°49.135 16.1 286 11.9 101540 86
2004-11-22 12:35 51°27.744 2°49.158 15 288 11.9 101550 86
2004-11-22 12:36 51°27.991 2°49.185 13.6 286 11.9 101530 86
2004-11-22 12:37 51°28.255 2°49.219 16.3 279 11.8 101490 87
2004-11-22 12:38 51°28.506 2°49.253 11.7 287 11.8 101530 87
2004-11-22 12:39 51°28.757 2°49.385 9.7 261 11.8 101560 87
2004-11-22 12:40 51°28.905 2°49.717 2.9 192 11.8 101550 87
2004-11-22 12:41 51°28.998 2°50.096 4.5 188 12 101540 88
2004-11-22 12:42 51°29.086 2°50.453 4.3 198 12.5 101540 86
2004-11-22 12:44 51°29.183 2°50.896 4.1 177 12.9 101540 86
2004-11-22 12:45 51°29.263 2°51.253 3.3 186 13.3 101540 82
2004-11-22 12:46 51°29.346 2°51.62 5.1 187 13.2 101540 80
2004-11-22 12:47 51°29.386 2°52.021 7.9 137 13.4 101540 78
2004-11-22 12:48 51°29.259 2°52.308 14.7 82 12.9 101530 77
2004-11-22 12:49 51°29.025 2°52.415 14.7 64 12.5 101490 80
2004-11-22 12:50 51°28.82 2°52.519 12.8 71 12.2 101490 82
2004-11-22 12:51 51°28.615 2°52.63 11.5 73 12 101490 83
2004-11-22 12:52 51°28.391 2°52.745 15.2 68 11.9 101490 85
2004-11-22 12:53 51°28.172 2°52.86 14.7 73 11.8 101480 85
2004-11-22 12:54 51°27.959 2°52.969 13.2 64 11.7 101500 86
2004-11-22 12:55 51°27.754 2°53.071 15.1 70 11.7 101490 86
2004-11-22 12:56 51°27.524 2°53.184 12.9 69 11.7 101480 86
2004-11-22 12:57 51°27.324 2°53.289 16.1 75 11.7 101480 86
2004-11-22 12:58 51°27.117 2°53.395 14.6 67 11.7 101490 86
2004-11-22 12:59 51°26.911 2°53.5 15.8 62 11.7 101500 86
2004-11-22 13:00 51°26.685 2°53.616 16.4 64 11.7 101480 87
2004-11-22 13:01 51°26.48 2°53.715 16 65 11.7 101490 87
2004-11-22 13:02 51°26.284 2°53.818 14.7 63 11.6 101510 87
2004-11-22 13:03 51°26.039 2°53.927 14.3 66 11.6 101500 87
2004-11-22 13:04 51°25.806 2°54.005 15.7 66 11.6 101490 87
2004-11-22 13:05 51°25.599 2°54.07 15.9 64 11.6 101500 87
2004-11-22 13:06 51°25.372 2°54.141 16.7 64 11.5 101510 86
2004-11-22 13:07 51°25.167 2°54.21 16.5 62 11.5 101500 87
2004-11-22 13:09 51°24.932 2°54.286 15.2 63 11.5 101500 87
2004-11-22 13:10 51°24.726 2°54.354 16.4 61 11.5 101500 87
2004-11-22 13:11 51°24.469 2°54.439 15.8 59 11.5 101510 87
2004-11-22 13:12 51°24.252 2°54.51 15.2 66 11.5 101510 87
2004-11-22 13:13 51°24.038 2°54.578 15.5 59 11.4 101520 87
2004-11-22 13:14 51°23.825 2°54.648 14.6 62 11.4 101520 87
2004-11-22 13:15 51°23.617 2°54.718 13.3 64 11.4 101540 87
2004-11-22 13:16 51°23.344 2°54.803 15.7 64 11.4 101520 87
2004-11-22 13:17 51°23.033 2°54.897 16.7 63 11.4 101520 87
2004-11-22 13:18 51°22.818 2°54.956 16.8 64 11.4 101520 87
2004-11-22 13:19 51°22.6 2°55.016 15.6 68 11.4 101520 87
2004-11-22 13:21 51°22.3 2°55.099 15.3 67 11.4 101520 87
2004-11-22 13:22 51°22.048 2°55.168 15.1 62 11.4 101520 87
2004-11-22 13:23 51°21.76 2°55.253 13.2 69 11.4 101520 87
2004-11-22 13:24 51°21.548 2°55.315 16.8 68 11.4 101520 87
2004-11-22 13:25 51°21.301 2°55.38 12 76 11.4 101530 87
2004-11-22 13:26 51°21.089 2°55.481 11.6 70 11.3 101540 87
2004-11-22 13:27 51°20.878 2°55.592 13.6 78 11.3 101520 87
2004-11-22 13:28 51°20.668 2°55.698 14.7 77 11.3 101540 87
2004-11-22 13:29 51°20.457 2°55.796 12.1 73 11.3 101540 87
2004-11-22 13:30 51°20.254 2°55.886 13.7 67 11.2 101540 87
2004-11-22 13:31 51°20.032 2°55.952 12.8 62 11.2 101530 88
2004-11-22 13:32 51°19.823 2°56.01 14.5 63 11.2 101530 88
2004-11-22 13:34 51°19.532 2°56.074 14.5 64 11.2 101530 88
2004-11-22 13:35 51°19.344 2°55.956 19.3 21 11.2 101530 88
2004-11-22 13:36 51°19.232 2°55.689 19.2 10 11.3 101550 88
2004-11-22 13:37 51°19.127 2°55.38 17.9 11 11.3 101550 88
2004-11-22 13:38 51°19.026 2°55.073 18.9 17 11.3 101540 89
2004-11-22 13:39 51°18.91 2°54.708 19.8 16 11.3 101540 89
2004-11-22 13:40 51°18.809 2°54.384 17.8 10 11.3 101550 89
2004-11-22 13:41 51°18.712 2°54.069 18.9 13 11.3 101550 89
2004-11-22 13:42 51°18.606 2°53.721 19.6 14 11.3 101540 89
2004-11-22 13:43 51°18.51 2°53.407 20.7 15 11.4 101540 89
2004-11-22 13:44 51°18.4 2°53.045 17.5 14 11.3 101540 90
2004-11-22 13:45 51°18.279 2°52.653 18.9 15 11.2 101560 90
2004-11-22 13:46 51°18.179 2°52.341 17.5 28 11.2 101550 90
2004-11-22 13:47 51°17.988 2°52.203 14.7 62 11.2 101540 90
2004-11-22 13:48 51°17.771 2°52.235 17.1 64 11.2 101550 90
2004-11-22 13:49 51°17.55 2°52.276 16.6 66 11.2 101560 90
2004-11-22 13:51 51°17.308 2°52.369 11.9 79 11.2 101560 90
2004-11-22 13:52 51°17.111 2°52.486 12.8 71 11.2 101570 90
2004-11-22 13:53 51°16.86 2°52.642 10.4 71 11.2 101580 89
2004-11-22 13:54 51°16.656 2°52.791 13 86 11.2 101580 90
2004-11-22 13:55 51°16.457 2°52.947 11.3 76 11.2 101580 90
2004-11-22 13:56 51°16.26 2°53.089 10.8 74 11.2 101590 90
2004-11-22 13:57 51°16.044 2°53.235 12.5 69 11.2 101570 90
2004-11-22 13:58 51°15.754 2°53.43 10.8 77 11.1 101570 90
2004-11-22 13:59 51°15.528 2°53.579 13.4 80 11.1 101580 90
2004-11-22 14:00 51°15.323 2°53.723 12.2 83 11.1 101580 90
2004-11-22 14:02 51°15.052 2°53.951 12.2 96 11.1 101600 90
2004-11-22 14:03 51°14.858 2°54.173 10.8 96 11 101610 90
2004-11-22 14:04 51°14.721 2°54.43 10.3 112 11 101610 91
2004-11-22 14:05 51°14.532 2°54.779 11.1 96 11 101610 90
2004-11-22 14:06 51°14.405 2°55.016 11.2 104 11 101600 91
2004-11-22 14:07 51°14.255 2°55.281 10.4 92 10.9 101620 91
2004-11-22 14:09 51°14.088 2°55.444 3.9 50 11 101620 91
2004-11-22 14:10 51°13.94 2°55.55 4 61 11.1 101620 92
2004-11-22 14:11 51°13.815 2°55.643 6.8 42 11.3 101620 92
2004-11-22 14:12 51°13.699 2°55.812 5.4 118 11.5 101620 91
2004-11-22 14:14 51°13.631 2°56.021 5.6 134 11.6 101620 90
2004-11-22 14:15 51°13.617 2°56.06 10.6 139 11.7 101620 89